Time;durP1;ratioP1;P1;durP2;ratioP2;P2;SDS_P1;SDS_P2;PMS_P1;PMS_P2;Temp;Humidity;BMP_temperature;BMP_pressure;BME280_temperature;BME280_humidity;BME280_pressure;Samples;Min_cycle;Max_cycle;Signal;HPM_P1;HPM_P2
2024/01/01 00:01:42;;;;;;;0.20;0.20;;;;;;;6.96;100.00;99691.03;5113841;28;20023;-57
2024/01/01 00:04:09;;;;;;;0.40;0.40;;;;;;;6.90;100.00;99684.94;5113857;28;20073;-57
2024/01/01 00:06:34;;;;;;;0.30;0.30;;;;;;;6.85;100.00;99683.94;5112518;28;20534;-57
2024/01/01 00:08:59;;;;;;;0.30;0.30;;;;;;;6.82;100.00;99690.69;5113539;28;20063;-57
2024/01/01 00:11:25;;;;;;;0.30;0.30;;;;;;;6.88;100.00;99688.28;5113261;28;20012;-59
2024/01/01 00:13:50;;;;;;;0.30;0.30;;;;;;;6.88;100.00;99686.59;5112804;28;20104;-58
2024/01/01 00:16:15;;;;;;;0.30;0.30;;;;;;;6.89;100.00;99703.72;5113262;28;20020;-58
2024/01/01 00:18:41;;;;;;;0.38;0.38;;;;;;;6.85;100.00;99696.75;5113652;28;20383;-58
2024/01/01 00:21:07;;;;;;;0.20;0.20;;;;;;;6.78;100.00;99710.22;5112850;28;20026;-59
2024/01/01 00:23:32;;;;;;;0.30;0.30;;;;;;;6.70;100.00;99702.34;5112895;28;20106;-59
2024/01/01 00:25:58;;;;;;;0.30;0.30;;;;;;;6.60;100.00;99697.81;5112391;28;20110;-58
2024/01/01 00:28:23;;;;;;;0.30;0.30;;;;;;;6.48;100.00;99698.34;5113066;28;20035;-58
2024/01/01 00:30:48;;;;;;;0.30;0.30;;;;;;;6.37;100.00;99684.38;5113116;28;20030;-56
2024/01/01 00:33:13;;;;;;;0.40;0.40;;;;;;;6.24;100.00;99691.69;5099806;28;20086;-57
2024/01/01 00:35:39;;;;;;;0.30;0.30;;;;;;;6.18;100.00;99694.06;5092864;28;20031;-57
2024/01/01 00:38:04;;;;;;;0.30;0.30;;;;;;;6.12;100.00;99691.38;5092531;28;20020;-58
2024/01/01 00:40:29;;;;;;;0.30;0.30;;;;;;;6.05;100.00;99697.09;5091689;28;20055;-58
2024/01/01 00:42:54;;;;;;;0.28;0.28;;;;;;;5.99;100.00;99702.03;5092788;28;20357;-59
2024/01/01 00:45:20;;;;;;;0.35;0.35;;;;;;;5.93;100.00;99685.66;5092692;28;20479;-59
2024/01/01 00:47:45;;;;;;;0.30;0.30;;;;;;;5.90;100.00;99700.91;5091995;28;20032;-58
2024/01/01 00:50:11;;;;;;;0.30;0.30;;;;;;;5.85;100.00;99702.47;5092184;28;20036;-59
2024/01/01 00:52:36;;;;;;;0.30;0.30;;;;;;;5.81;100.00;99684.44;5092477;28;20032;-58
2024/01/01 00:55:03;;;;;;;0.40;0.40;;;;;;;5.81;100.00;99677.63;5091902;28;20063;-58
2024/01/01 00:57:28;;;;;;;0.20;0.20;;;;;;;5.73;100.00;99689.31;5092626;28;20095;-58
2024/01/01 00:59:53;;;;;;;0.30;0.30;;;;;;;5.72;100.00;99697.78;5092680;28;20107;-58
2024/01/01 01:02:20;;;;;;;0.30;0.30;;;;;;;5.60;100.00;99699.16;5091420;28;20028;-58
2024/01/01 01:04:46;;;;;;;0.30;0.30;;;;;;;5.57;100.00;99691.38;5092613;28;20048;-58
2024/01/01 01:07:12;;;;;;;0.30;0.30;;;;;;;5.49;100.00;99692.84;5095468;28;20024;-59
2024/01/01 01:09:37;;;;;;;0.30;0.30;;;;;;;5.42;100.00;99690.91;5095869;28;20081;-58
2024/01/01 01:12:03;;;;;;;0.35;0.35;;;;;;;5.38;100.00;99702.72;5096309;28;20043;-58
2024/01/01 01:14:28;;;;;;;0.40;0.40;;;;;;;5.34;100.00;99706.00;5096333;28;20035;-59
2024/01/01 01:16:53;;;;;;;0.40;0.40;;;;;;;5.30;100.00;99708.41;5095920;28;20149;-58
2024/01/01 01:19:19;;;;;;;0.35;0.35;;;;;;;5.27;100.00;99710.03;5096120;28;20046;-59
2024/01/01 01:21:44;;;;;;;0.40;0.40;;;;;;;5.31;100.00;99715.25;5096302;28;20021;-59
2024/01/01 01:24:15;;;;;;;0.30;0.30;;;;;;;5.35;100.00;99697.50;5095200;28;20031;-58
2024/01/01 01:26:40;;;;;;;0.25;0.25;;;;;;;5.44;100.00;99725.06;5096443;28;20099;-58
2024/01/01 01:29:06;;;;;;;0.40;0.40;;;;;;;5.46;100.00;99725.09;5095629;28;20132;-59
2024/01/01 01:31:31;;;;;;;0.30;0.30;;;;;;;5.51;100.00;99729.53;5096133;28;20241;-59
2024/01/01 01:33:56;;;;;;;0.30;0.30;;;;;;;5.57;100.00;99719.50;5096153;28;20028;-58
2024/01/01 01:36:21;;;;;;;0.30;0.30;;;;;;;5.60;100.00;99731.50;5094962;28;20043;-58
2024/01/01 01:38:47;;;;;;;0.35;0.35;;;;;;;5.58;100.00;99723.81;5096103;28;20505;-58
2024/01/01 01:41:12;;;;;;;0.30;0.30;;;;;;;5.59;100.00;99725.53;5095789;28;20016;-56
2024/01/01 01:43:37;;;;;;;0.30;0.30;;;;;;;5.54;100.00;99724.53;5095429;28;20012;-57
2024/01/01 01:46:03;;;;;;;0.40;0.40;;;;;;;5.52;100.00;99713.38;5095980;28;20416;-58
2024/01/01 01:48:29;;;;;;;0.30;0.30;;;;;;;5.49;100.00;99710.75;5095466;28;20043;-58
2024/01/01 01:50:55;;;;;;;0.30;0.30;;;;;;;5.44;100.00;99719.94;5095100;28;20035;-58
2024/01/01 01:53:23;;;;;;;0.40;0.40;;;;;;;5.43;100.00;99715.66;5095379;28;20020;-58
2024/01/01 01:55:50;;;;;;;0.30;0.30;;;;;;;5.38;100.00;99712.06;5095971;28;20107;-59
2024/01/01 01:58:16;;;;;;;0.40;0.40;;;;;;;5.42;100.00;99724.13;5094884;28;20025;-58
2024/01/01 02:00:42;;;;;;;0.40;0.40;;;;;;;5.44;100.00;99722.50;5095878;28;20024;-58
2024/01/01 02:03:08;;;;;;;0.35;0.35;;;;;;;5.45;100.00;99719.13;5095626;28;20035;-58
2024/01/01 02:05:33;;;;;;;0.35;0.35;;;;;;;5.47;100.00;99722.59;5094346;28;20046;-58
2024/01/01 02:08:00;;;;;;;0.30;0.30;;;;;;;5.52;100.00;99733.81;5095576;28;20035;-59
2024/01/01 02:10:25;;;;;;;0.40;0.40;;;;;;;5.51;100.00;99739.75;5094969;28;20464;-58
2024/01/01 02:12:50;;;;;;;0.30;0.30;;;;;;;5.51;100.00;99731.22;5094687;28;20028;-59
2024/01/01 02:15:16;;;;;;;0.30;0.30;;;;;;;5.52;100.00;99725.31;5095270;28;20036;-58
2024/01/01 02:17:41;;;;;;;0.30;0.30;;;;;;;5.54;100.00;99728.75;5094947;28;20464;-58
2024/01/01 02:20:07;;;;;;;0.30;0.30;;;;;;;5.55;100.00;99730.50;5094572;28;20028;-58
2024/01/01 02:22:39;;;;;;;0.20;0.20;;;;;;;5.53;100.00;99727.91;5094986;28;20060;-59
2024/01/01 02:25:05;;;;;;;0.30;0.30;;;;;;;5.53;100.00;99735.56;5095138;28;20367;-59
2024/01/01 02:27:31;;;;;;;0.30;0.30;;;;;;;5.54;100.00;99721.97;5094320;28;20017;-58
2024/01/01 02:29:56;;;;;;;0.30;0.30;;;;;;;5.54;100.00;99739.88;5095258;28;20429;-59
2024/01/01 02:32:21;;;;;;;0.30;0.30;;;;;;;5.55;100.00;99723.72;5094332;28;20032;-58
2024/01/01 02:34:49;;;;;;;0.32;0.32;;;;;;;5.56;100.00;99738.22;5094789;28;20024;-58
2024/01/01 02:37:15;;;;;;;0.40;0.40;;;;;;;5.59;100.00;99753.66;5094523;28;20040;-58
2024/01/01 02:39:40;;;;;;;0.30;0.30;;;;;;;5.60;100.00;99745.19;5094256;28;20023;-59
2024/01/01 02:42:05;;;;;;;0.30;0.30;;;;;;;5.63;100.00;99748.63;5094749;28;20031;-58
2024/01/01 02:44:30;;;;;;;0.30;0.30;;;;;;;5.62;100.00;99750.34;5094698;28;20028;-58
2024/01/01 02:46:56;;;;;;;0.40;0.40;;;;;;;5.62;100.00;99747.78;5094035;28;20085;-59
2024/01/01 02:49:21;;;;;;;0.20;0.20;;;;;;;5.58;100.00;99757.03;5094094;28;20123;-58
2024/01/01 02:51:47;;;;;;;0.40;0.40;;;;;;;5.55;100.00;99756.06;5094518;28;20036;-59
2024/01/01 02:54:12;;;;;;;0.30;0.30;;;;;;;5.52;100.00;99767.03;5093815;28;20024;-59
2024/01/01 02:56:37;;;;;;;0.30;0.30;;;;;;;5.52;100.00;99764.50;5094738;28;20028;-58
2024/01/01 02:59:02;;;;;;;0.40;0.40;;;;;;;5.53;100.00;99762.81;5094667;28;20062;-59
2024/01/01 03:01:28;;;;;;;0.32;0.32;;;;;;;5.52;100.00;99755.97;5093481;28;20024;-59
2024/01/01 03:03:54;;;;;;;0.30;0.30;;;;;;;5.50;100.00;99755.03;5094358;28;20055;-59
2024/01/01 03:06:19;;;;;;;0.30;0.30;;;;;;;5.46;100.00;99754.06;5094133;28;20016;-59
2024/01/01 03:08:45;;;;;;;0.30;0.30;;;;;;;5.52;100.00;99756.81;5093758;28;20483;-59
2024/01/01 03:11:10;;;;;;;0.28;0.28;;;;;;;5.51;100.00;99756.78;5094252;28;20492;-59
2024/01/01 03:13:35;;;;;;;0.30;0.30;;;;;;;5.50;100.00;99748.25;5094376;28;20383;-59
2024/01/01 03:16:02;;;;;;;0.30;0.30;;;;;;;5.54;100.00;99764.53;5093312;28;20065;-59
2024/01/01 03:18:28;;;;;;;0.40;0.40;;;;;;;5.52;100.00;99759.38;5093882;28;20103;-58
2024/01/01 03:20:53;;;;;;;0.30;0.30;;;;;;;5.54;100.00;99754.31;5094092;28;20234;-59
2024/01/01 03:23:19;;;;;;;0.30;0.30;;;;;;;5.53;100.00;99762.81;5092748;28;20068;-58
2024/01/01 03:25:44;;;;;;;0.30;0.30;;;;;;;5.52;100.00;99766.19;5094076;28;20032;-59
2024/01/01 03:28:09;;;;;;;0.40;0.40;;;;;;;5.56;100.00;99763.75;5093200;28;20353;-58
2024/01/01 03:30:35;;;;;;;0.30;0.30;;;;;;;5.58;100.00;99771.50;5093081;28;20020;-59
2024/01/01 03:33:02;;;;;;;0.30;0.30;;;;;;;5.57;100.00;99764.66;5093852;28;20016;-58
2024/01/01 03:35:29;;;;;;;0.30;0.30;;;;;;;5.61;100.00;99782.69;5093408;28;20455;-58
2024/01/01 03:37:54;;;;;;;0.40;0.40;;;;;;;5.61;100.00;99767.34;5093378;28;20042;-59
2024/01/01 03:40:20;;;;;;;0.38;0.38;;;;;;;5.65;100.00;99777.69;5093662;28;20024;-59
2024/01/01 03:42:45;;;;;;;0.30;0.30;;;;;;;5.63;100.00;99776.75;5093049;28;20544;-58
2024/01/01 03:45:10;;;;;;;0.30;0.30;;;;;;;5.64;100.00;99778.50;5093542;28;20025;-58
2024/01/01 03:47:35;;;;;;;0.30;0.30;;;;;;;5.60;100.00;99773.28;5093793;28;20379;-59
2024/01/01 03:50:01;;;;;;;0.30;0.30;;;;;;;5.60;100.00;99768.19;5092653;28;20939;-58
2024/01/01 03:52:26;;;;;;;0.30;0.30;;;;;;;5.64;100.00;99770.81;5093437;28;20024;-58
2024/01/01 03:54:51;;;;;;;0.30;0.30;;;;;;;5.61;100.00;99769.91;5093480;28;20560;-59
2024/01/01 03:57:17;;;;;;;0.35;0.35;;;;;;;5.61;100.00;99762.22;5092396;28;20036;-58
2024/01/01 03:59:42;;;;;;;0.30;0.30;;;;;;;5.61;100.00;99752.00;5093585;28;20028;-59
2024/01/01 04:02:10;;;;;;;0.30;0.30;;;;;;;5.63;100.00;99753.75;5093133;28;20055;-59
2024/01/01 04:04:35;;;;;;;0.30;0.30;;;;;;;5.58;100.00;99757.03;5092539;28;20380;-58
2024/01/01 04:07:01;;;;;;;0.25;0.25;;;;;;;5.57;100.00;99764.66;5093470;28;20494;-58
2024/01/01 04:09:26;;;;;;;0.40;0.40;;;;;;;5.64;100.00;99755.50;5092961;28;20069;-58
2024/01/01 04:11:51;;;;;;;0.30;0.30;;;;;;;5.66;100.00;99764.09;5092590;28;20028;-59
2024/01/01 04:14:17;;;;;;;0.30;0.30;;;;;;;5.68;100.00;99757.31;5092934;28;20012;-58
2024/01/01 04:16:42;;;;;;;0.30;0.30;;;;;;;5.68;100.00;99772.66;5093210;28;20024;-58
2024/01/01 04:19:07;;;;;;;0.30;0.30;;;;;;;5.67;100.00;99765.81;5092395;28;20028;-58
2024/01/01 04:21:32;;;;;;;0.30;0.30;;;;;;;5.67;100.00;99770.91;5092925;28;20032;-59
2024/01/01 04:23:58;;;;;;;0.30;0.30;;;;;;;5.63;100.00;99771.63;5093242;28;20360;-58
2024/01/01 04:26:24;;;;;;;0.40;0.40;;;;;;;5.63;100.00;99771.63;5092189;28;20031;-59
2024/01/01 04:28:49;;;;;;;0.30;0.30;;;;;;;5.63;100.00;99774.19;5093028;28;20031;-59
2024/01/01 04:31:14;;;;;;;0.30;0.30;;;;;;;5.64;100.00;99773.38;5092741;28;20024;-58
2024/01/01 04:33:40;;;;;;;0.40;0.40;;;;;;;5.64;100.00;99787.03;5092090;28;20026;-58
2024/01/01 04:36:05;;;;;;;0.30;0.30;;;;;;;5.66;100.00;99781.97;5093071;28;20464;-59
2024/01/01 04:38:31;;;;;;;0.30;0.30;;;;;;;5.69;100.00;99777.81;5092524;28;20051;-58
2024/01/01 04:40:56;;;;;;;0.40;0.40;;;;;;;5.73;100.00;99781.34;5092136;28;20053;-58
2024/01/01 04:43:21;;;;;;;0.32;0.32;;;;;;;5.73;100.00;99774.56;5092546;28;20485;-59
2024/01/01 04:45:47;;;;;;;0.40;0.40;;;;;;;5.75;100.00;99769.50;5092937;28;20024;-59
2024/01/01 04:48:12;;;;;;;0.30;0.30;;;;;;;5.75;100.00;99790.78;5091463;28;20069;-59
2024/01/01 04:50:37;;;;;;;0.30;0.30;;;;;;;5.73;100.00;99795.00;5093046;28;20028;-59
2024/01/01 04:53:03;;;;;;;0.40;0.40;;;;;;;5.68;100.00;99805.88;5091984;28;20016;-59
2024/01/01 04:55:28;;;;;;;0.35;0.35;;;;;;;5.70;100.00;99796.59;5092598;28;20030;-58
2024/01/01 04:57:53;;;;;;;0.40;0.40;;;;;;;5.70;100.00;99809.38;5092872;28;20028;-59
2024/01/01 05:00:19;;;;;;;0.40;0.40;;;;;;;5.68;100.00;99809.34;5091533;28;20031;-58
2024/01/01 05:02:44;;;;;;;0.30;0.30;;;;;;;5.67;100.00;99796.47;5092668;28;20024;-58
2024/01/01 05:05:10;;;;;;;0.20;0.20;;;;;;;5.69;100.00;99794.84;5092517;28;20028;-59
2024/01/01 05:07:36;;;;;;;0.30;0.30;;;;;;;5.70;100.00;99801.72;5091780;28;20029;-58
2024/01/01 05:10:02;;;;;;;0.40;0.40;;;;;;;5.71;100.00;99798.34;5092452;28;20467;-58
2024/01/01 05:12:27;;;;;;;0.30;0.30;;;;;;;5.70;100.00;99807.69;5102581;28;20020;-59
2024/01/01 05:14:53;;;;;;;0.40;0.40;;;;;;;5.72;100.00;99808.59;5112141;28;20103;-59
2024/01/01 05:17:18;;;;;;;0.30;0.30;;;;;;;5.70;100.00;99811.94;5112443;28;20114;-59
2024/01/01 05:19:43;;;;;;;0.30;0.30;;;;;;;5.72;100.00;99815.38;5112377;28;20089;-58
2024/01/01 05:22:09;;;;;;;0.30;0.30;;;;;;;5.73;100.00;99820.56;5112082;28;20023;-58
2024/01/01 05:24:35;;;;;;;0.30;0.30;;;;;;;5.76;100.00;99830.03;5112912;28;20038;-58
2024/01/01 05:27:01;;;;;;;0.40;0.40;;;;;;;5.76;100.00;99828.34;5113026;28;20015;-59
2024/01/01 05:29:26;;;;;;;0.30;0.30;;;;;;;5.77;100.00;99829.19;5111926;28;20026;-59
2024/01/01 05:31:54;;;;;;;0.40;0.40;;;;;;;5.79;100.00;99842.91;5112608;28;20049;-59
2024/01/01 05:34:19;;;;;;;;;;;;;;;5.86;100.00;99832.06;5112728;28;20027;-58
2024/01/01 05:36:45;;;;;;;0.30;0.30;;;;;;;5.78;100.00;99830.94;5112106;28;20256;-59
2024/01/01 05:39:10;;;;;;;0.30;0.30;;;;;;;5.80;100.00;99834.41;5112482;28;20077;-59
2024/01/01 05:41:36;;;;;;;0.30;0.30;;;;;;;5.77;100.00;99837.75;5112656;28;20047;-59
2024/01/01 05:44:01;;;;;;;0.30;0.30;;;;;;;5.78;100.00;99836.03;5111887;28;20072;-59
2024/01/01 05:46:26;;;;;;;0.30;0.30;;;;;;;5.80;100.00;99839.53;5112358;28;20454;-59
2024/01/01 05:48:52;;;;;;;0.30;0.30;;;;;;;5.79;100.00;99842.91;5112609;28;20074;-59
2024/01/01 05:51:18;;;;;;;0.40;0.40;;;;;;;5.80;100.00;99844.66;5111626;28;20027;-59
2024/01/01 05:53:44;;;;;;;0.30;0.30;;;;;;;5.78;100.00;99841.16;5116268;28;20139;-59
2024/01/01 05:56:09;;;;;;;0.40;0.40;;;;;;;5.78;100.00;99846.28;5116262;28;20408;-58
2024/01/01 05:58:34;;;;;;;0.30;0.30;;;;;;;5.78;100.00;99861.63;5115286;28;20573;-58
2024/01/01 06:01:00;;;;;;;0.40;0.40;;;;;;;5.71;100.00;99859.69;5115961;28;20027;-58
2024/01/01 06:03:26;;;;;;;0.32;0.32;;;;;;;5.68;100.00;99874.91;5114926;28;20543;-58
2024/01/01 06:05:51;;;;;;;0.30;0.30;;;;;;;5.63;100.00;99884.13;5116166;28;20531;-58
2024/01/01 06:08:16;;;;;;;0.38;0.38;;;;;;;5.55;100.00;99879.63;5115778;28;20019;-58
2024/01/01 06:10:42;;;;;;;0.30;0.30;;;;;;;5.47;100.00;99873.38;5115337;28;20016;-59
2024/01/01 06:13:07;;;;;;;0.38;0.38;;;;;;;5.39;100.00;99887.56;5115704;28;20030;-58
2024/01/01 06:15:32;;;;;;;0.35;0.35;;;;;;;5.34;100.00;99873.75;5115504;28;20077;-58
2024/01/01 06:17:58;;;;;;;0.30;0.30;;;;;;;5.32;100.00;99876.28;5115005;28;20030;-58
2024/01/01 06:20:23;;;;;;;0.30;0.30;;;;;;;5.31;100.00;99883.84;5115627;28;20051;-59
2024/01/01 06:22:49;;;;;;;0.40;0.40;;;;;;;5.27;100.00;99896.53;5115718;28;20382;-59
2024/01/01 06:25:14;;;;;;;0.40;0.40;;;;;;;5.25;100.00;99893.06;5114406;28;20790;-58
2024/01/01 06:27:40;;;;;;;0.30;0.30;;;;;;;5.23;100.00;99897.25;5115777;28;20384;-59
2024/01/01 06:30:06;;;;;;;0.30;0.30;;;;;;;5.21;100.00;99903.13;5114903;28;20475;-58
2024/01/01 06:32:32;;;;;;;0.30;0.30;;;;;;;5.19;100.00;99913.28;5114252;28;20396;-59
2024/01/01 06:34:57;;;;;;;0.30;0.30;;;;;;;5.17;100.00;99912.34;5115372;28;20020;-59
2024/01/01 06:37:23;;;;;;;0.40;0.40;;;;;;;5.22;100.00;99925.31;5114885;28;20035;-59
2024/01/01 06:39:48;;;;;;;0.30;0.30;;;;;;;5.21;100.00;99924.41;5114519;28;20015;-58
2024/01/01 06:42:15;;;;;;;0.30;0.30;;;;;;;5.17;100.00;99927.69;5115000;28;20024;-59
2024/01/01 06:44:40;;;;;;;0.30;0.30;;;;;;;5.13;100.00;99928.38;5115321;28;20084;-58
2024/01/01 06:47:05;;;;;;;0.30;0.30;;;;;;;5.13;100.00;99941.16;5114414;28;20016;-59
2024/01/01 06:49:30;;;;;;;0.30;0.30;;;;;;;5.16;100.00;99951.47;5114646;28;20051;-58
2024/01/01 06:51:56;;;;;;;0.30;0.30;;;;;;;5.20;100.00;99962.69;5115257;28;20035;-59
2024/01/01 06:54:21;;;;;;;0.30;0.30;;;;;;;5.21;100.00;99957.63;5114247;28;20034;-58
2024/01/01 06:56:46;;;;;;;0.40;0.40;;;;;;;5.21;100.00;99960.19;5114762;28;20042;-59
2024/01/01 06:59:13;;;;;;;0.30;0.30;;;;;;;5.18;100.00;99967.75;5114712;28;20018;-58
2024/01/01 07:01:39;;;;;;;0.40;0.40;;;;;;;5.17;100.00;99972.78;5114008;28;20095;-59
2024/01/01 07:04:04;;;;;;;0.32;0.32;;;;;;;5.16;100.00;99966.81;5113796;28;20091;-59
2024/01/01 07:06:29;;;;;;;0.40;0.40;;;;;;;5.18;100.00;99965.19;5114601;28;20034;-59
2024/01/01 07:08:55;;;;;;;0.38;0.38;;;;;;;5.19;100.00;99960.94;5113894;28;20016;-58
2024/01/01 07:11:20;;;;;;;0.30;0.30;;;;;;;5.20;100.00;99968.69;5114534;28;20043;-58
2024/01/01 07:13:45;;;;;;;0.30;0.30;;;;;;;5.22;100.00;99971.28;5114165;28;20072;-58
2024/01/01 07:16:11;;;;;;;0.40;0.40;;;;;;;5.22;100.00;99981.50;5114533;28;20379;-58
2024/01/01 07:18:36;;;;;;;0.40;0.40;;;;;;;5.23;100.00;99990.91;5114721;28;20356;-59
2024/01/01 07:21:02;;;;;;;0.40;0.40;;;;;;;5.24;100.00;99987.53;5113970;28;20068;-59
2024/01/01 07:23:28;;;;;;;0.30;0.30;;;;;;;5.21;100.00;99985.72;5114351;28;20024;-59
2024/01/01 07:25:53;;;;;;;0.40;0.40;;;;;;;5.22;100.00;99992.59;5114691;28;20095;-59
2024/01/01 07:28:18;;;;;;;0.40;0.40;;;;;;;5.17;100.00;99994.09;5113501;28;20144;-59
2024/01/01 07:30:43;;;;;;;0.30;0.30;;;;;;;5.17;100.00;100000.91;5114210;28;20372;-59
2024/01/01 07:33:09;;;;;;;0.30;0.30;;;;;;;5.17;100.00;100009.41;5114398;28;20037;-58
2024/01/01 07:35:34;;;;;;;0.30;0.30;;;;;;;5.14;100.00;100004.22;5112898;28;20394;-58
2024/01/01 07:38:00;;;;;;;0.30;0.30;;;;;;;5.10;100.00;100012.56;5114222;28;20027;-59
2024/01/01 07:40:25;;;;;;;0.40;0.40;;;;;;;5.11;100.00;100011.72;5113842;28;20529;-59
2024/01/01 07:42:51;;;;;;;0.40;0.40;;;;;;;5.09;100.00;100005.72;5113253;28;20110;-59
2024/01/01 07:45:16;;;;;;;0.20;0.20;;;;;;;5.09;100.00;100006.56;5113801;28;20016;-59
2024/01/01 07:47:41;;;;;;;0.38;0.38;;;;;;;5.05;100.00;100014.06;5113888;28;20020;-58
2024/01/01 07:50:07;;;;;;;0.40;0.40;;;;;;;5.03;100.00;100021.66;5113078;28;20051;-59
2024/01/01 07:52:32;;;;;;;0.40;0.40;;;;;;;5.05;100.00;100016.63;5113831;28;20103;-59
2024/01/01 07:54:58;;;;;;;0.40;0.40;;;;;;;5.05;100.00;100029.41;5114000;28;20030;-59
2024/01/01 07:57:24;;;;;;;0.20;0.20;;;;;;;5.04;100.00;100023.41;5112875;28;20421;-58
2024/01/01 07:59:51;;;;;;;0.30;0.30;;;;;;;5.06;100.00;100023.47;5113644;28;20460;-58
2024/01/01 08:02:17;;;;;;;0.30;0.30;;;;;;;5.04;100.00;100033.63;5113487;28;20024;-58
2024/01/01 08:04:42;;;;;;;0.30;0.30;;;;;;;5.02;100.00;100039.47;5112803;28;20050;-59
2024/01/01 08:07:07;;;;;;;0.30;0.30;;;;;;;5.02;100.00;100045.47;5113752;28;20025;-59
2024/01/01 08:09:33;;;;;;;0.30;0.30;;;;;;;5.02;100.00;100047.13;5113443;28;20036;-59
2024/01/01 08:11:58;;;;;;;0.30;0.30;;;;;;;5.05;100.00;100045.59;5112592;28;20116;-58
2024/01/01 08:14:23;;;;;;;0.40;0.40;;;;;;;5.07;100.00;100053.31;5112740;28;20027;-58
2024/01/01 08:16:49;;;;;;;0.40;0.40;;;;;;;5.11;100.00;100056.03;5113308;28;20015;-58
2024/01/01 08:19:15;;;;;;;0.30;0.30;;;;;;;5.12;100.00;100062.00;5112486;28;20402;-58
2024/01/01 08:21:40;;;;;;;0.30;0.30;;;;;;;5.15;100.00;100067.25;5113590;28;20028;-58
2024/01/01 08:24:06;;;;;;;0.30;0.30;;;;;;;5.15;100.00;100077.47;5112532;28;20038;-58
2024/01/01 08:26:31;;;;;;;0.30;0.30;;;;;;;5.21;100.00;100069.16;5112960;28;20031;-58
2024/01/01 08:28:56;;;;;;;0.30;0.30;;;;;;;5.26;100.00;100077.88;5113267;28;20020;-58
2024/01/01 08:31:22;;;;;;;0.30;0.30;;;;;;;5.28;100.00;100089.91;5112198;28;20805;-58
2024/01/01 08:33:47;;;;;;;0.40;0.40;;;;;;;5.31;100.00;100085.69;5113552;28;20032;-58
2024/01/01 08:36:13;;;;;;;0.30;0.30;;;;;;;5.30;100.00;100081.44;5113194;28;20023;-58
2024/01/01 08:38:38;;;;;;;0.30;0.30;;;;;;;5.31;100.00;100098.47;5112535;28;20035;-57
2024/01/01 08:41:03;;;;;;;0.30;0.30;;;;;;;5.32;100.00;100096.00;5113268;28;20064;-56
2024/01/01 08:43:29;;;;;;;0.30;0.30;;;;;;;5.34;100.00;100088.41;5112851;28;20047;-56
2024/01/01 08:45:54;;;;;;;0.25;0.25;;;;;;;5.37;100.00;100106.38;5108159;28;20408;-56
2024/01/01 08:48:20;;;;;;;0.30;0.30;;;;;;;5.39;100.00;100112.44;5099170;28;20489;-56
2024/01/01 08:50:45;;;;;;;0.40;0.40;;;;;;;5.41;100.00;100100.56;5092884;28;20032;-57
2024/01/01 08:53:10;;;;;;;0.35;0.35;;;;;;;5.45;100.00;100102.47;5091684;28;20031;-56
2024/01/01 08:55:36;;;;;;;0.30;0.30;;;;;;;5.48;100.00;100110.22;5092928;28;20031;-57
2024/01/01 08:58:02;;;;;;;0.40;0.40;;;;;;;5.51;100.00;100115.44;5092622;28;20418;-56
2024/01/01 09:00:27;;;;;;;0.30;0.30;;;;;;;5.56;100.00;100123.31;5091533;28;20396;-56
2024/01/01 09:02:53;;;;;;;0.40;0.40;;;;;;;5.59;100.00;100110.63;5092719;28;20460;-56
2024/01/01 09:05:18;;;;;;;0.40;0.40;;;;;;;5.65;100.00;100120.22;5092490;28;20024;-57
2024/01/01 09:07:44;;;;;;;0.32;0.32;;;;;;;5.72;100.00;100128.19;5091872;28;20379;-56
2024/01/01 09:10:10;;;;;;;0.40;0.40;;;;;;;5.77;100.00;100125.78;5092296;28;20365;-56
2024/01/01 09:12:35;;;;;;;0.40;0.40;;;;;;;5.77;100.00;100130.91;5092569;28;20445;-56
2024/01/01 09:15:00;;;;;;;0.40;0.40;;;;;;;5.75;100.00;100137.66;5091649;28;20046;-56
2024/01/01 09:17:26;;;;;;;0.30;0.30;;;;;;;5.72;100.00;100130.75;5092403;28;20024;-56
2024/01/01 09:19:52;;;;;;;0.30;0.30;;;;;;;5.71;100.00;100135.81;5092668;28;20031;-56
2024/01/01 09:22:18;;;;;;;0.32;0.32;;;;;;;5.68;100.00;100145.91;5091600;28;20035;-57
2024/01/01 09:24:43;;;;;;;0.40;0.40;;;;;;;5.68;100.00;100146.78;5092365;28;20028;-57
2024/01/01 09:27:09;;;;;;;0.30;0.30;;;;;;;5.71;100.00;100152.00;5093606;28;20022;-58
2024/01/01 09:29:35;;;;;;;0.30;0.30;;;;;;;5.73;100.00;100144.38;5094998;28;20028;-56
2024/01/01 09:32:00;;;;;;;0.30;0.30;;;;;;;5.75;100.00;100153.00;5096144;28;20032;-57
2024/01/01 09:34:25;;;;;;;0.30;0.30;;;;;;;5.75;100.00;100164.09;5095219;28;20020;-57
2024/01/01 09:36:50;;;;;;;0.30;0.30;;;;;;;5.72;100.00;100163.09;5096124;28;20024;-58
2024/01/01 09:39:16;;;;;;;0.30;0.30;;;;;;;5.68;100.00;100161.25;5095552;28;20024;-58
2024/01/01 09:41:41;;;;;;;0.40;0.40;;;;;;;5.64;100.00;100177.28;5095078;28;20030;-58
2024/01/01 09:44:10;;;;;;;0.30;0.30;;;;;;;5.59;100.00;100177.97;5095891;28;20085;-59
2024/01/01 09:46:35;;;;;;;0.30;0.30;;;;;;;5.55;100.00;100186.34;5095684;28;20556;-59
2024/01/01 09:49:02;;;;;;;0.30;0.30;;;;;;;5.52;100.00;100193.88;5100689;28;20067;-58
2024/01/01 09:51:27;;;;;;;0.30;0.30;;;;;;;5.53;100.00;100184.53;5115926;28;20103;-58
2024/01/01 09:53:53;;;;;;;0.40;0.40;;;;;;;5.54;100.00;100183.72;5116099;28;20103;-58
2024/01/01 09:56:18;;;;;;;0.40;0.40;;;;;;;5.56;100.00;100192.31;5115201;28;20027;-58
2024/01/01 09:58:45;;;;;;;0.30;0.30;;;;;;;5.63;100.00;100188.31;5115919;28;20173;-58
2024/01/01 10:01:13;;;;;;;0.32;0.32;;;;;;;5.71;100.00;100202.28;5116014;28;20059;-59
2024/01/01 10:03:41;;;;;;;0.30;0.30;;;;;;;5.78;100.00;100206.81;5115216;28;20024;-59
2024/01/01 10:06:10;;;;;;;0.30;0.30;;;;;;;5.89;100.00;100205.53;5116170;28;20023;-59
2024/01/01 10:08:37;;;;;;;0.30;0.30;;;;;;;5.99;100.00;100205.91;5116022;28;20030;-59
2024/01/01 10:11:16;;;;;;;0.30;0.30;;;;;;;6.01;100.00;100220.50;5115183;28;20030;-59
2024/01/01 10:13:42;;;;;;;0.30;0.30;;;;;;;5.99;100.00;100223.81;5115998;28;20046;-58
2024/01/01 10:16:07;;;;;;;0.30;0.30;;;;;;;5.96;100.00;100226.25;5116054;28;20467;-58
2024/01/01 10:18:33;;;;;;;0.40;0.40;;;;;;;5.94;100.00;100221.94;5114674;28;20081;-58
2024/01/01 10:21:13;;;;;;;0.38;0.38;;;;;;;5.95;100.00;100217.69;5115827;28;20069;-58
2024/01/01 10:23:39;;;;;;;0.40;0.40;;;;;;;5.99;100.00;100229.81;5114731;28;20177;-59
2024/01/01 10:26:06;;;;;;;0.30;0.30;;;;;;;6.14;100.00;100236.34;5115581;28;20119;-59
2024/01/01 10:28:33;;;;;;;0.40;0.40;;;;;;;6.37;100.00;100232.06;5115498;28;20201;-59
2024/01/01 10:31:00;;;;;;;0.30;0.30;;;;;;;6.46;100.00;100242.63;5114789;28;20015;-59
2024/01/01 10:33:28;;;;;;;0.30;0.30;;;;;;;6.53;100.00;100244.63;5115079;28;20536;-59
2024/01/01 10:35:53;;;;;;;0.30;0.30;;;;;;;6.71;100.00;100248.63;5115514;28;20053;-59
2024/01/01 10:38:20;;;;;;;0.38;0.38;;;;;;;6.84;100.00;100253.41;5114032;28;20023;-59
2024/01/01 10:40:46;;;;;;;0.28;0.28;;;;;;;6.81;100.00;100248.13;5115273;28;20425;-59
2024/01/01 10:43:12;;;;;;;0.30;0.30;;;;;;;6.84;100.00;100260.19;5115145;28;20028;-59
2024/01/01 10:45:38;;;;;;;0.30;0.30;;;;;;;6.84;100.00;100250.84;5114639;28;20028;-59
2024/01/01 10:48:06;;;;;;;0.30;0.30;;;;;;;6.86;100.00;100243.19;5115343;28;20069;-58
2024/01/01 10:50:35;;;;;;;0.30;0.30;;;;;;;6.89;100.00;100244.19;5114725;28;20474;-59
2024/01/01 10:53:18;;;;;;;0.20;0.20;;;;;;;6.86;100.00;100259.41;5114365;28;20038;-59
2024/01/01 10:55:52;;;;;;;0.30;0.30;;;;;;;6.74;100.00;100249.63;5114918;28;20108;-59
2024/01/01 10:58:18;;;;;;;0.30;0.30;;;;;;;6.64;100.00;100249.25;5114639;28;20519;-59
2024/01/01 11:01:14;;;;;;;0.30;0.30;;;;;;;6.62;100.00;100256.84;5114081;28;20107;-59
2024/01/01 11:03:41;;;;;;;0.40;0.40;;;;;;;6.77;100.00;100245.44;5098146;28;20376;-59
2024/01/01 11:06:31;;;;;;;0.20;0.20;;;;;;;6.87;100.00;100256.03;5114285;28;20032;-59
2024/01/01 11:09:16;;;;;;;0.30;0.30;;;;;;;6.72;100.00;100242.69;5114792;28;20269;-59
2024/01/01 11:11:52;;;;;;;0.30;0.30;;;;;;;6.57;100.00;100264.38;5114461;28;20053;-59
2024/01/01 11:14:42;;;;;;;0.20;0.20;;;;;;;6.46;100.00;100260.56;5113811;28;20032;-59
2024/01/01 11:17:07;;;;;;;0.30;0.30;;;;;;;6.44;100.00;100269.84;5114774;28;20031;-59
2024/01/01 11:19:48;;;;;;;0.30;0.30;;;;;;;6.43;100.00;100269.00;5114932;28;20027;-59
2024/01/01 11:22:23;;;;;;;0.30;0.30;;;;;;;6.38;100.00;100274.78;5113590;28;20027;-59
2024/01/01 11:24:50;;;;;;;0.40;0.40;;;;;;;6.35;100.00;100272.06;5114665;28;20035;-59
2024/01/01 11:27:26;;;;;;;0.30;0.30;;;;;;;6.38;100.00;100274.78;5113165;28;20035;-59